ンジャメナ の空港の天気 - METARとTAF

ンジャメナ国際空港 ( FTTJ / NDJ ) - チャド ンジャメナ
飛行場実況気象(Metar)
観測時間08/04 23:00 WAT (08/04 22:00 UTC)
風向・風速南南西 3m/s
視程10km以上
天気現象
少しの雲 雲底高度 610m
気温25℃
湿度89%
気圧1011hPa
METARFTTJ 042200Z 21006KT 9999 FEW020 25/23 Q1011 NOSIG
過去の天気等 Google飛行場航空写真 Wunderground天気予報

過去48時間のMETAR

飛行場予報(TAF)
発表時間: 8/04 18:00 WAT (8/04 17:00 UTC)
予報対象時間: 4日19時 WAT ~ 6日1時 WAT
風向・風速南西 5m/s
視程10km以上
全天の4割程度の雲 雲底高度 910m
4日20時 WAT ~ 4日24時 WAT に 確率 30% で一時的に
視程4000m
天気現象雷雨
5日5時 WAT ~ 5日9時 WAT に 確率 30% で一時的に
視程4000m
天気現象雷雨
5日17時 WAT ~ 5日21時 WAT に一時的に
視程4000m
天気現象雷雨
TAF FTTJ 041700Z 0418/0524 22010KT 9999 SCT030
PROB30 TEMPO 0419/0423 4000 TSRA
PROB30 TEMPO 0504/0508 4000 TSRA
TEMPO 0516/0520 4000 TSRA